createdAt,value
2019-03-01T00:01:26.616Z,470.60
2019-03-01T00:04:04.160Z,546.57
2019-03-01T00:06:38.682Z,535.27
2019-03-01T00:09:29.700Z,378.80
2019-03-01T00:12:16.481Z,364.70
2019-03-01T00:15:08.046Z,368.47
2019-03-01T00:18:01.068Z,349.63
2019-03-01T00:20:41.687Z,356.17
2019-03-01T00:23:36.126Z,364.50
2019-03-01T00:26:20.020Z,316.10
2019-03-01T00:28:57.899Z,396.67
2019-03-01T00:31:51.581Z,359.80
2019-03-01T00:34:29.299Z,340.60
2019-03-01T00:37:19.214Z,308.97
2019-03-01T00:39:51.043Z,343.23
2019-03-01T00:42:28.093Z,378.63
2019-03-01T00:44:56.990Z,438.40
2019-03-01T00:47:25.850Z,372.43
2019-03-01T00:49:54.702Z,309.37
2019-03-01T00:52:23.618Z,306.63
2019-03-01T00:54:52.471Z,316.93
2019-03-01T00:57:21.333Z,315.47
2019-03-01T00:59:50.218Z,310.43
2019-03-01T01:02:19.076Z,308.33
2019-03-01T01:04:47.921Z,288.23
2019-03-01T01:07:16.829Z,284.53
2019-03-01T01:09:45.702Z,302.43
2019-03-01T01:12:14.559Z,365.63
2019-03-01T01:14:43.488Z,341.27
2019-03-01T01:17:12.367Z,324.73
2019-03-01T01:19:45.164Z,296.57
2019-03-01T01:22:14.060Z,266.53
2019-03-01T01:24:42.923Z,224.23
2019-03-01T01:27:11.773Z,220.00
2019-03-01T01:29:40.663Z,221.60
2019-03-01T01:32:10.342Z,208.27
2019-03-01T01:34:39.196Z,209.97
2019-03-01T01:37:08.114Z,184.40
2019-03-01T01:39:36.957Z,224.37
2019-03-01T01:42:06.704Z,236.27
2019-03-01T01:44:35.586Z,205.27
2019-03-01T01:47:04.438Z,217.13
2019-03-01T01:49:33.282Z,259.43
2019-03-01T01:52:02.201Z,370.27
2019-03-01T01:54:31.044Z,362.43
2019-03-01T01:56:59.904Z,272.47
2019-03-01T01:59:28.821Z,277.07
2019-03-01T02:01:57.803Z,236.77
2019-03-01T02:04:26.805Z,206.73
2019-03-01T02:06:55.894Z,197.70
2019-03-01T02:09:25.108Z,203.43
2019-03-01T02:11:54.600Z,172.40
2019-03-01T02:14:23.606Z,183.90
2019-03-01T02:16:52.479Z,147.73
2019-03-01T02:19:21.579Z,168.43
2019-03-01T02:21:50.669Z,148.93
2019-03-01T02:24:19.566Z,174.67
2019-03-01T02:26:48.449Z,159.30
2019-03-01T02:29:19.633Z,184.90
2019-03-01T02:31:51.762Z,185.43
2019-03-01T02:34:21.584Z,172.33
2019-03-01T02:36:50.566Z,181.03
2019-03-01T02:39:19.454Z,255.83
2019-03-01T02:41:48.347Z,303.93
2019-03-01T02:44:17.540Z,219.90
2019-03-01T02:46:46.431Z,148.60
2019-03-01T02:49:15.320Z,131.23
2019-03-01T02:51:44.312Z,128.33
2019-03-01T02:54:13.307Z,131.37
2019-03-01T02:56:42.195Z,131.73
2019-03-01T02:59:11.294Z,148.40
2019-03-01T03:01:40.327Z,164.77
2019-03-01T03:04:09.378Z,142.27
2019-03-01T03:06:42.755Z,122.43
2019-03-01T03:09:12.463Z,148.40
2019-03-01T03:11:41.378Z,155.93
2019-03-01T03:14:10.371Z,181.77
2019-03-01T03:16:39.362Z,183.97
2019-03-01T03:19:08.251Z,190.93
2019-03-01T03:21:37.222Z,206.97
2019-03-01T03:24:06.233Z,215.50
2019-03-01T03:26:35.122Z,193.17
2019-03-01T03:29:04.120Z,158.37
2019-03-01T03:31:33.007Z,119.10
2019-03-01T03:34:01.843Z,134.27
2019-03-01T03:36:32.637Z,122.00
2019-03-01T03:39:01.500Z,119.63
2019-03-01T03:41:30.415Z,129.60
2019-03-01T03:43:59.403Z,124.43
2019-03-01T03:46:28.266Z,127.93
2019-03-01T03:48:57.181Z,117.70
2019-03-01T03:51:26.158Z,122.47
2019-03-01T03:53:55.169Z,135.00
2019-03-01T03:56:24.032Z,137.37
2019-03-01T03:58:53.030Z,144.13
2019-03-01T04:01:21.944Z,150.67
2019-03-01T04:03:50.812Z,127.27
2019-03-01T04:06:19.829Z,136.93
2019-03-01T04:08:48.702Z,147.23
2019-03-01T04:11:17.582Z,183.23
2019-03-01T04:13:46.572Z,172.57
2019-03-01T04:16:15.464Z,126.30
2019-03-01T04:18:44.417Z,109.83
2019-03-01T04:21:13.369Z,104.17
2019-03-01T04:23:42.260Z,111.27
2019-03-01T04:26:11.126Z,110.97
2019-03-01T04:28:40.117Z,116.47
2019-03-01T04:31:09.035Z,124.60
2019-03-01T04:33:37.923Z,122.90
2019-03-01T04:36:06.892Z,119.60
2019-03-01T04:38:36.701Z,132.10
2019-03-01T04:41:05.617Z,121.50
2019-03-01T04:43:34.610Z,134.10
2019-03-01T04:46:06.470Z,146.37
2019-03-01T04:48:35.360Z,196.53
2019-03-01T04:51:04.432Z,221.63
2019-03-01T04:53:33.345Z,214.47
2019-03-01T04:56:02.235Z,231.43
2019-03-01T04:58:31.117Z,210.43
2019-03-01T05:01:00.020Z,152.60
2019-03-01T05:03:28.907Z,134.87
2019-03-01T05:05:57.899Z,151.87
2019-03-01T05:08:26.789Z,149.17
2019-03-01T05:10:55.677Z,146.33
2019-03-01T05:13:24.670Z,142.40
2019-03-01T05:15:53.618Z,136.73
2019-03-01T05:18:22.553Z,130.63
2019-03-01T05:20:51.546Z,139.53
2019-03-01T05:23:23.800Z,143.40
2019-03-01T05:25:52.743Z,112.83
2019-03-01T05:28:21.700Z,112.20
2019-03-01T05:30:53.559Z,113.43
2019-03-01T05:33:22.428Z,136.60
2019-03-01T05:35:51.440Z,145.10
2019-03-01T05:38:22.055Z,136.90
2019-03-01T05:40:51.863Z,131.77
2019-03-01T05:43:20.878Z,124.07
2019-03-01T05:45:49.766Z,115.00
2019-03-01T05:48:18.760Z,124.27
2019-03-01T05:50:47.753Z,126.87
2019-03-01T05:53:16.642Z,133.83
2019-03-01T05:55:45.532Z,133.03
2019-03-01T05:58:29.373Z,131.40
2019-03-01T06:01:01.004Z,135.57
2019-03-01T06:03:41.692Z,147.23
2019-03-01T06:06:13.554Z,185.63
2019-03-01T06:08:51.258Z,240.47
2019-03-01T06:11:25.979Z,265.43
2019-03-01T06:14:03.371Z,181.47
2019-03-01T06:16:44.241Z,158.50
2019-03-01T06:19:18.573Z,162.07
2019-03-01T06:22:08.438Z,170.80
2019-03-01T06:24:55.350Z,162.73
2019-03-01T06:27:43.905Z,168.77
2019-03-01T06:30:21.804Z,160.43
2019-03-01T06:33:05.540Z,160.93
2019-03-01T06:35:38.424Z,167.30
2019-03-01T06:38:26.853Z,184.37
2019-03-01T06:41:26.180Z,203.53
2019-03-01T06:44:11.121Z,196.07
2019-03-01T06:47:01.135Z,194.77
2019-03-01T06:49:31.662Z,185.43
2019-03-01T06:52:00.650Z,198.50
2019-03-01T06:54:29.644Z,188.60
2019-03-01T06:56:58.531Z,190.13
2019-03-01T06:59:27.424Z,204.40
2019-03-01T07:01:56.414Z,191.13
2019-03-01T07:04:25.312Z,188.73
2019-03-01T07:06:54.172Z,164.33
2019-03-01T07:09:23.169Z,169.93
2019-03-01T07:11:52.056Z,167.57
2019-03-01T07:14:20.969Z,157.13
2019-03-01T07:16:49.961Z,158.23
2019-03-01T07:19:18.852Z,150.17
2019-03-01T07:21:47.713Z,160.70
2019-03-01T07:24:16.828Z,201.17
2019-03-01T07:26:45.906Z,191.13
2019-03-01T07:29:14.932Z,175.83
2019-03-01T07:31:43.918Z,178.97
2019-03-01T07:34:12.808Z,187.43
2019-03-01T07:36:41.697Z,194.80
2019-03-01T07:39:10.875Z,206.90
2019-03-01T07:41:39.784Z,234.63
2019-03-01T07:44:08.777Z,228.83
2019-03-01T07:46:37.746Z,211.67
2019-03-01T07:49:06.660Z,219.97
2019-03-01T07:51:36.061Z,244.20
2019-03-01T07:54:05.258Z,293.03
2019-03-01T07:56:36.956Z,326.00
2019-03-01T07:59:04.678Z,309.53
2019-03-01T08:01:33.671Z,318.70
2019-03-01T08:04:02.562Z,316.20
2019-03-01T08:06:31.425Z,291.10
2019-03-01T08:09:00.444Z,271.03
2019-03-01T08:11:31.723Z,213.33
2019-03-01T08:13:59.871Z,208.43
2019-03-01T08:16:28.963Z,192.77
2019-03-01T08:18:57.953Z,232.70
2019-03-01T08:21:26.950Z,209.13
2019-03-01T08:23:55.937Z,197.63
2019-03-01T08:26:24.934Z,191.40
2019-03-01T08:28:54.712Z,186.03
2019-03-01T08:31:24.451Z,161.37
2019-03-01T08:33:53.318Z,150.50
2019-03-01T08:36:22.231Z,124.97
2019-03-01T08:38:51.225Z,147.87
2019-03-01T08:41:21.596Z,166.17
2019-03-01T08:43:51.984Z,163.80
2019-03-01T08:46:21.169Z,166.67
2019-03-01T08:48:50.062Z,165.00
2019-03-01T08:51:18.951Z,150.77
2019-03-01T08:53:48.312Z,170.00
2019-03-01T08:56:25.832Z,157.03
2019-03-01T08:58:48.999Z,165.93
2019-03-01T09:01:21.064Z,152.20
2019-03-01T09:04:01.977Z,159.23
2019-03-01T09:06:30.930Z,158.50
2019-03-01T09:09:00.755Z,159.77
2019-03-01T09:11:30.654Z,155.50
2019-03-01T09:13:59.954Z,140.33
2019-03-01T09:16:28.945Z,141.37
2019-03-01T09:18:57.940Z,132.37
2019-03-01T09:21:26.910Z,117.63
2019-03-01T09:23:55.907Z,108.20
2019-03-01T09:26:24.757Z,111.50
2019-03-01T09:28:53.646Z,125.80
2019-03-01T09:31:22.497Z,120.50
2019-03-01T09:33:53.695Z,137.90
2019-03-01T09:36:38.778Z,141.20
2019-03-01T09:39:09.445Z,144.77
2019-03-01T09:41:40.407Z,121.00
2019-03-01T09:44:08.805Z,157.03
2019-03-01T09:46:37.668Z,132.23
2019-03-01T09:49:06.514Z,174.17
2019-03-01T09:51:35.458Z,136.97
2019-03-01T09:54:06.421Z,138.60
2019-03-01T09:56:34.985Z,176.30
2019-03-01T09:59:03.921Z,130.20
2019-03-01T10:01:32.771Z,159.30
2019-03-01T10:04:01.623Z,151.37
2019-03-01T10:06:37.779Z,158.23
2019-03-01T10:09:01.034Z,170.87
2019-03-01T10:11:29.863Z,141.70
2019-03-01T10:13:58.777Z,177.17
2019-03-01T10:16:27.631Z,167.30
2019-03-01T10:18:56.457Z,136.40
2019-03-01T10:21:26.213Z,165.90
2019-03-01T10:23:55.070Z,160.67
2019-03-01T10:26:23.910Z,144.80
2019-03-01T10:28:52.797Z,146.13
2019-03-01T10:31:21.653Z,137.67
2019-03-01T10:33:50.494Z,130.30
2019-03-01T10:36:19.389Z,123.30
2019-03-01T10:38:48.256Z,122.93
2019-03-01T10:41:17.078Z,137.13
2019-03-01T10:43:46.020Z,157.23
2019-03-01T10:46:14.867Z,149.80
2019-03-01T10:48:43.698Z,153.27
2019-03-01T10:51:12.598Z,160.97
2019-03-01T10:53:41.478Z,142.73
2019-03-01T10:56:10.333Z,127.00
2019-03-01T10:58:39.220Z,104.47
2019-03-01T11:01:09.657Z,88.33
2019-03-01T11:03:38.492Z,67.17
2019-03-01T11:06:07.617Z,66.83
2019-03-01T11:08:36.474Z,62.27
2019-03-01T11:11:05.809Z,60.70
2019-03-01T11:13:34.707Z,59.10
2019-03-01T11:16:03.559Z,62.63
2019-03-01T11:18:32.395Z,58.10
2019-03-01T11:21:01.274Z,59.73
2019-03-01T11:23:30.122Z,58.70
2019-03-01T11:25:58.967Z,51.00
2019-03-01T11:28:27.878Z,59.73
2019-03-01T11:30:56.715Z,57.83
2019-03-01T11:33:25.571Z,54.53
2019-03-01T11:35:54.466Z,54.40
2019-03-01T11:38:23.322Z,48.83
2019-03-01T11:40:53.414Z,52.10
2019-03-01T11:43:22.475Z,48.83
2019-03-01T11:45:51.316Z,46.20
2019-03-01T11:48:20.170Z,47.90
2019-03-01T11:50:49.089Z,49.57
2019-03-01T11:53:17.944Z,50.97
2019-03-01T11:55:47.683Z,45.53
2019-03-01T11:58:16.593Z,45.37
2019-03-01T12:00:52.112Z,42.70
2019-03-01T12:03:15.924Z,44.53
2019-03-01T12:05:45.108Z,43.43
2019-03-01T12:08:13.962Z,40.27
2019-03-01T12:10:42.817Z,50.90
2019-03-01T12:13:11.681Z,43.17
2019-03-01T12:15:40.482Z,42.03
2019-03-01T12:18:09.322Z,34.10
2019-03-01T12:20:38.197Z,37.47
2019-03-01T12:23:07.030Z,40.50
2019-03-01T12:25:35.889Z,37.67
2019-03-01T12:28:04.768Z,32.67
2019-03-01T12:30:33.604Z,36.77
2019-03-01T12:33:02.542Z,40.33
2019-03-01T12:35:31.456Z,35.57
2019-03-01T12:38:00.308Z,32.73
2019-03-01T12:40:30.358Z,35.03
2019-03-01T12:42:59.257Z,31.30
2019-03-01T12:45:28.106Z,32.03
2019-03-01T12:47:56.960Z,30.43
2019-03-01T12:50:25.837Z,33.27
2019-03-01T12:52:54.686Z,30.37
2019-03-01T12:55:25.689Z,27.97
2019-03-01T12:57:54.625Z,34.57
2019-03-01T13:00:28.911Z,37.53
2019-03-01T13:02:57.786Z,33.23
2019-03-01T13:05:29.255Z,34.23
2019-03-01T13:07:57.132Z,29.87
2019-03-01T13:10:30.747Z,29.50
2019-03-01T13:13:02.209Z,30.13
2019-03-01T13:15:30.093Z,33.73
2019-03-01T13:17:59.011Z,33.60
2019-03-01T13:20:29.757Z,32.80
2019-03-01T13:23:00.932Z,50.30
2019-03-01T13:25:29.491Z,26.87
2019-03-01T13:27:59.126Z,31.73
2019-03-01T13:30:28.968Z,36.17
2019-03-01T13:33:01.814Z,31.30
2019-03-01T13:35:29.327Z,29.57
2019-03-01T13:37:58.186Z,26.30
2019-03-01T13:40:27.105Z,28.50
2019-03-01T13:42:55.950Z,30.77
2019-03-01T13:45:28.602Z,31.33
2019-03-01T13:47:57.509Z,27.17
2019-03-01T13:50:26.355Z,26.27
2019-03-01T13:52:55.222Z,30.53
2019-03-01T13:55:24.102Z,35.10
2019-03-01T13:57:52.946Z,33.47
2019-03-01T14:00:22.500Z,30.73
2019-03-01T14:02:51.429Z,34.07
2019-03-01T14:05:20.382Z,30.27
2019-03-01T14:07:55.414Z,37.13
2019-03-01T14:10:25.581Z,26.77
2019-03-01T14:12:54.417Z,25.90
2019-03-01T14:15:23.468Z,28.40
2019-03-01T14:17:52.365Z,27.00
2019-03-01T14:20:22.209Z,25.90
2019-03-01T14:22:51.056Z,25.40
2019-03-01T14:25:20.133Z,31.03
2019-03-01T14:27:49.084Z,29.50
2019-03-01T14:30:19.924Z,32.40
2019-03-01T14:32:48.801Z,28.97
2019-03-01T14:35:20.154Z,24.20
2019-03-01T14:37:54.253Z,28.33
2019-03-01T14:40:22.783Z,26.93
2019-03-01T14:42:50.142Z,31.13
2019-03-01T14:45:25.656Z,30.30
2019-03-01T14:47:55.256Z,30.87
2019-03-01T14:50:25.503Z,33.20
2019-03-01T14:52:58.455Z,32.40
2019-03-01T14:55:39.366Z,24.10
2019-03-01T14:58:23.508Z,32.93
2019-03-01T15:00:58.952Z,37.33
2019-03-01T15:03:30.816Z,29.83
2019-03-01T15:05:59.745Z,37.40
2019-03-01T15:08:28.688Z,35.17
2019-03-01T15:10:59.273Z,34.13
2019-03-01T15:13:31.349Z,41.27
2019-03-01T15:16:01.066Z,33.87
2019-03-01T15:18:32.262Z,30.90
2019-03-01T15:21:02.598Z,35.50
2019-03-01T15:23:30.371Z,31.50
2019-03-01T15:25:59.253Z,32.10
2019-03-01T15:28:28.115Z,32.90
2019-03-01T15:30:57.333Z,33.40
2019-03-01T15:33:26.353Z,37.20
2019-03-01T15:35:55.198Z,41.47
2019-03-01T15:38:27.476Z,40.00
2019-03-01T15:40:54.614Z,35.13
2019-03-01T15:43:26.447Z,32.23
2019-03-01T15:45:53.946Z,34.83
2019-03-01T15:48:22.843Z,35.70
2019-03-01T15:50:51.674Z,32.23
2019-03-01T15:53:21.595Z,28.90
2019-03-01T15:55:51.072Z,31.37
2019-03-01T15:58:19.931Z,34.83
2019-03-01T16:00:48.766Z,33.37
2019-03-01T16:03:17.682Z,35.10
2019-03-01T16:05:46.541Z,37.30
2019-03-01T16:08:15.394Z,36.50
2019-03-01T16:10:44.270Z,34.30
2019-03-01T16:13:13.324Z,32.00
2019-03-01T16:15:42.258Z,35.03
2019-03-01T16:18:11.160Z,33.83
2019-03-01T16:20:40.027Z,38.97
2019-03-01T16:23:08.879Z,40.93
2019-03-01T16:25:37.878Z,42.00
2019-03-01T16:28:06.734Z,46.53
2019-03-01T16:30:35.584Z,53.63
2019-03-01T16:33:04.470Z,57.00
2019-03-01T16:35:33.322Z,59.33
2019-03-01T16:38:03.474Z,52.53
2019-03-01T16:40:32.365Z,58.07
2019-03-01T16:43:01.212Z,59.47
2019-03-01T16:45:30.049Z,58.40
2019-03-01T16:48:00.830Z,53.33
2019-03-01T16:50:29.472Z,105.80
2019-03-01T16:52:58.317Z,150.43
2019-03-01T16:55:28.937Z,185.43
2019-03-01T16:58:06.166Z,193.47
2019-03-01T17:00:28.647Z,192.60
2019-03-01T17:03:08.869Z,161.07
2019-03-01T17:05:38.758Z,230.73
2019-03-01T17:08:08.187Z,131.03
2019-03-01T17:10:37.125Z,193.97
2019-03-01T17:13:05.984Z,203.03
2019-03-01T17:15:34.836Z,148.23
2019-03-01T17:18:03.745Z,135.33
2019-03-01T17:20:37.490Z,178.47
2019-03-01T17:23:03.776Z,179.90
2019-03-01T17:25:32.921Z,217.17
2019-03-01T17:28:01.780Z,223.50
2019-03-01T17:30:30.644Z,233.17
2019-03-01T17:32:59.540Z,226.67
2019-03-01T17:35:28.394Z,239.53
2019-03-01T17:37:57.240Z,267.00
2019-03-01T17:40:29.438Z,296.53
2019-03-01T17:42:57.386Z,327.43
2019-03-01T17:45:26.996Z,282.70
2019-03-01T17:47:55.916Z,258.10
2019-03-01T17:50:24.782Z,262.67
2019-03-01T17:52:53.653Z,266.83
2019-03-01T17:55:24.528Z,306.83
2019-03-01T17:57:53.612Z,376.93
2019-03-01T18:00:30.976Z,413.57
2019-03-01T18:02:59.808Z,416.47
2019-03-01T18:05:28.657Z,407.33
2019-03-01T18:07:59.863Z,489.77
2019-03-01T18:10:28.737Z,446.70
2019-03-01T18:12:58.640Z,373.23
2019-03-01T18:15:27.519Z,354.00
2019-03-01T18:17:56.337Z,344.53
2019-03-01T18:20:25.271Z,233.03
2019-03-01T18:22:54.214Z,233.53
2019-03-01T18:25:26.227Z,262.80
2019-03-01T18:27:54.861Z,270.80
2019-03-01T18:30:29.940Z,245.70
2019-03-01T18:32:58.858Z,275.50
2019-03-01T18:35:27.744Z,226.13
2019-03-01T18:37:56.622Z,267.53
2019-03-01T18:40:25.484Z,190.63
2019-03-01T18:42:54.403Z,266.37
2019-03-01T18:45:24.857Z,372.00
2019-03-01T18:47:53.714Z,391.20
2019-03-01T18:50:31.187Z,396.90
2019-03-01T18:52:59.447Z,396.17
2019-03-01T18:55:28.298Z,410.93
2019-03-01T18:57:57.587Z,430.20
2019-03-01T19:00:44.506Z,453.53
2019-03-01T19:03:13.408Z,445.70
2019-03-01T19:05:42.253Z,474.63
2019-03-01T19:08:11.111Z,474.23
2019-03-01T19:10:40.022Z,458.33
2019-03-01T19:13:09.081Z,449.47
2019-03-01T19:15:37.942Z,452.43
2019-03-01T19:18:07.104Z,422.63
2019-03-01T19:20:42.450Z,443.70
2019-03-01T19:23:11.518Z,439.27
2019-03-01T19:25:40.336Z,461.73
2019-03-01T19:28:09.271Z,445.87
2019-03-01T19:30:38.165Z,434.93
2019-03-01T19:33:07.022Z,448.93
2019-03-01T19:35:35.868Z,398.40
2019-03-01T19:38:04.866Z,385.60
2019-03-01T19:40:33.727Z,417.23
2019-03-01T19:43:02.570Z,430.60
2019-03-01T19:45:31.468Z,384.03
2019-03-01T19:48:03.283Z,348.27
2019-03-01T19:50:30.923Z,327.77
2019-03-01T19:52:59.808Z,354.47
2019-03-01T19:55:28.665Z,373.73
2019-03-01T19:57:57.816Z,422.03
2019-03-01T20:00:27.937Z,364.20
2019-03-01T20:02:56.779Z,404.40
2019-03-01T20:05:31.831Z,425.57
2019-03-01T20:08:00.619Z,450.37
2019-03-01T20:10:29.674Z,419.47
2019-03-01T20:12:58.534Z,422.67
2019-03-01T20:15:28.948Z,427.30
2019-03-01T20:17:57.790Z,397.53
2019-03-01T20:20:29.878Z,420.60
2019-03-01T20:22:58.102Z,432.67
2019-03-01T20:25:26.955Z,422.93
2019-03-01T20:27:55.843Z,453.37
2019-03-01T20:30:30.695Z,457.07
2019-03-01T20:32:59.808Z,419.73
2019-03-01T20:35:28.677Z,323.03
2019-03-01T20:38:00.124Z,260.63
2019-03-01T20:40:28.255Z,284.83
2019-03-01T20:43:01.329Z,399.93
2019-03-01T20:45:36.278Z,356.03
2019-03-01T20:48:05.198Z,343.93
2019-03-01T20:50:34.064Z,342.03
2019-03-01T20:53:02.937Z,364.87
2019-03-01T20:55:33.076Z,334.90
2019-03-01T20:58:03.133Z,439.30
2019-03-01T21:00:33.268Z,473.67
2019-03-01T21:03:02.132Z,436.03
2019-03-01T21:05:30.991Z,317.90
2019-03-01T21:07:59.973Z,336.33
2019-03-01T21:10:30.993Z,297.47
2019-03-01T21:12:59.859Z,322.80
2019-03-01T21:15:28.742Z,309.90
2019-03-01T21:17:58.680Z,239.93
2019-03-01T21:20:27.724Z,305.33
2019-03-01T21:22:56.623Z,322.57
2019-03-01T21:25:26.186Z,329.23
2019-03-01T21:27:57.738Z,326.73
2019-03-01T21:30:32.677Z,313.27
2019-03-01T21:33:01.537Z,308.27
2019-03-01T21:35:30.352Z,293.70
2019-03-01T21:37:59.237Z,287.03
2019-03-01T21:40:28.089Z,284.90
2019-03-01T21:42:59.823Z,293.13
2019-03-01T21:45:27.594Z,252.20
2019-03-01T21:47:56.447Z,356.83
2019-03-01T21:50:25.409Z,402.10
2019-03-01T21:52:54.411Z,340.37
2019-03-01T21:55:29.796Z,377.00
2019-03-01T21:57:58.814Z,365.53
2019-03-01T22:00:30.957Z,362.53
2019-03-01T22:02:59.645Z,282.90
2019-03-01T22:05:28.548Z,257.17
2019-03-01T22:07:57.382Z,173.47
2019-03-01T22:10:26.236Z,109.47
2019-03-01T22:12:56.952Z,36.47
2019-03-01T22:15:27.073Z,41.23
2019-03-01T22:17:56.348Z,36.97
2019-03-01T22:20:25.546Z,31.60
2019-03-01T22:22:54.437Z,28.23
2019-03-01T22:25:23.605Z,27.57
2019-03-01T22:27:52.629Z,23.50
2019-03-01T22:30:34.213Z,33.03
2019-03-01T22:33:03.206Z,25.43
2019-03-01T22:35:32.096Z,21.50
2019-03-01T22:38:04.523Z,28.07
2019-03-01T22:40:31.621Z,41.07
2019-03-01T22:43:00.514Z,52.23
2019-03-01T22:45:29.401Z,94.43
2019-03-01T22:47:58.367Z,108.80
2019-03-01T22:50:27.284Z,96.57
2019-03-01T22:52:56.171Z,90.13
2019-03-01T22:55:25.164Z,92.30
2019-03-01T22:57:54.057Z,121.20
2019-03-01T23:00:30.180Z,109.47
2019-03-01T23:02:59.083Z,111.57
2019-03-01T23:05:28.099Z,128.07
2019-03-01T23:08:00.206Z,115.13
2019-03-01T23:10:28.310Z,115.93
2019-03-01T23:12:57.225Z,114.17
2019-03-01T23:15:26.220Z,125.77
2019-03-01T23:17:55.108Z,121.63
2019-03-01T23:20:26.678Z,128.53
2019-03-01T23:22:54.630Z,134.17
2019-03-01T23:25:23.519Z,127.50
2019-03-01T23:27:52.411Z,130.67
2019-03-01T23:30:21.381Z,298.53
2019-03-01T23:32:52.637Z,173.37
2019-03-01T23:35:20.821Z,168.73
2019-03-01T23:37:49.827Z,145.13
2019-03-01T23:40:18.704Z,143.37
2019-03-01T23:42:47.797Z,157.83
2019-03-01T23:45:17.456Z,162.97
2019-03-01T23:47:47.421Z,177.27
2019-03-01T23:50:16.314Z,182.50
2019-03-01T23:52:45.305Z,191.50
2019-03-01T23:55:15.604Z,197.47
2019-03-01T23:57:44.704Z,193.43
